Latest Weather Observations for Noarlunga

IDS60801

Issued at 1:31 pm CST Tuesday 26 July 2016 (issued every 30 minutes, with the page automatically refreshed every 10 minutes)

About weather observations | Map of weather stations | Latest weather observations for SA | Other Formats
Station Details ID: 023885 Name: NOARLUNGA Lat: -35.16 Lon: 138.51 Height: 55.0 m
Data from the previous 72 hours. | See also: Recent months at Noarlunga
Date/Time
CST
Temp
°C
App
Temp
°C
Dew
Point
°C
Rel
Hum
%
Delta-T
°C
Wind Press
QNH
hPa
Press
MSL
hPa
Rain since
9am
mm
Dir  Spd
km/h
Gust
km/h
Spd
kts
Gust
kts
26/01:30pm 10.8 5.0 6.4 74 2.1 NNW 26 41 14 22 - - 0.4
26/01:00pm 10.4 4.3 6.5 77 1.8 NNW 28 48 15 26 - - 0.4
26/12:58pm 10.5 4.4 6.5 76 1.9 NNW 28 48 15 26 - - 0.2
26/12:30pm 11.1 4.9 6.3 72 2.3 N 28 46 15 25 - - 0.0
26/12:06pm 11.3 5.1 6.0 70 2.5 NNW 28 46 15 25 - - 0.0
26/12:00pm 11.1 4.2 6.6 74 2.1 NNW 32 48 17 26 - - 0.0
26/11:30am 11.0 4.5 6.6 74 2.1 NNW 30 46 16 25 - - 0.0
26/11:00am 11.3 5.4 6.0 70 2.5 NNW 26 43 14 23 - - 0.0
26/10:30am 11.2 4.9 5.7 69 2.6 NNW 28 41 15 22 - - 0.0
26/10:00am 11.6 7.0 6.3 70 2.5 NNW 20 32 11 17 - - 0.0
26/09:30am 11.8 6.7 5.9 67 2.8 NW 22 37 12 20 - - 0.0
26/09:00am 11.1 5.9 5.4 68 2.6 NW 22 35 12 19 - - 7.8
26/08:30am 10.5 5.3 5.7 72 2.2 NW 22 33 12 18 - - 7.8
26/08:00am 10.1 5.1 4.7 69 2.4 NW 20 33 11 18 - - 7.8
26/07:30am 9.8 4.9 5.2 73 2.1 NW 20 33 11 18 - - 7.8
26/07:00am 9.7 4.9 4.9 72 2.2 NW 19 30 10 16 - - 7.8
26/06:30am 8.8 5.7 5.5 80 1.5 WNW 11 26 6 14 - - 7.8
26/06:00am 8.2 6.0 5.5 83 1.2 W 6 9 3 5 - - 7.8
26/05:30am 8.9 5.1 6.0 82 1.3 WNW 15 28 8 15 - - 7.8
26/05:00am 8.3 5.7 5.9 85 1.1 NW 9 15 5 8 - - 7.8
26/04:30am 8.0 5.3 5.8 86 1.0 W 9 15 5 8 - - 7.6
26/04:00am 9.3 4.8 6.0 80 1.5 WNW 19 33 10 18 - - 6.8
26/03:30am 8.7 5.7 5.8 82 1.3 WNW 11 17 6 9 - - 6.8
26/03:00am 8.3 3.4 4.9 79 1.5 WNW 20 32 11 17 - - 6.6
26/02:30am 8.5 3.0 6.0 84 1.1 WNW 24 35 13 19 - - 6.2
26/02:00am 9.8 5.8 4.8 71 2.2 W 15 22 8 12 - - 5.6
26/01:30am 9.8 5.0 4.4 69 2.4 W 19 32 10 17 - - 5.6
26/01:00am 10.4 6.4 4.8 68 2.5 W 15 24 8 13 - - 5.4
26/12:30am 10.3 5.4 4.9 69 2.4 W 20 30 11 16 - - 5.4
26/12:00am 10.3 4.4 3.8 64 2.9 WNW 24 35 13 19 - - 5.4
 
Date/Time
CST
Temp
°C
App
Temp
°C
Dew
Point
°C
Rel
Hum
%
Delta-T
°C
Wind Press
QNH
hPa
Press
MSL
hPa
Rain since
9am
mm
Dir  Spd
km/h
Gust
km/h
Spd
kts
Gust
kts
25/11:30pm 10.2 6.4 3.7 64 2.9 W 13 24 7 13 - - 5.4
25/11:00pm 9.7 4.8 3.9 67 2.6 W 19 39 10 21 - - 5.4
25/10:30pm 10.2 6.0 3.7 64 2.9 W 15 28 8 15 - - 5.4
25/10:00pm 10.3 4.6 2.7 59 3.3 W 22 32 12 17 - - 5.4
25/09:32pm 10.8 3.9 2.6 57 3.5 W 28 46 15 25 - - 5.4
25/09:30pm 11.0 4.1 2.8 57 3.6 W 28 43 15 23 - - 5.4
25/09:00pm 10.6 4.8 2.4 57 3.5 WSW 22 37 12 20 - - 5.4
25/08:30pm 10.8 4.7 2.6 57 3.5 WSW 24 39 13 21 - - 5.4
25/08:00pm 10.9 5.0 3.7 61 3.2 WSW 24 41 13 22 - - 5.4
25/07:30pm 11.0 5.3 3.1 58 3.5 WSW 22 37 12 20 - - 5.4
25/07:00pm 11.3 5.7 3.3 58 3.5 WSW 22 35 12 19 - - 5.4
25/06:30pm 11.6 5.4 4.3 61 3.3 WSW 26 39 14 21 - - 5.4
25/06:00pm 11.4 6.0 6.3 71 2.4 W 24 39 13 21 - - 5.4
25/05:30pm 11.7 6.7 6.6 71 2.4 WSW 22 33 12 18 - - 5.4
25/05:00pm 11.6 7.0 6.7 72 2.3 W 20 32 11 17 - - 5.4
25/04:30pm 11.6 6.0 7.1 74 2.2 WSW 26 41 14 22 - - 5.4
25/04:00pm 11.4 7.8 9.7 89 0.9 W 19 30 10 16 - - 5.4
25/03:30pm 11.0 6.0 9.4 90 0.8 W 26 43 14 23 - - 5.2
25/03:15pm 11.4 5.9 9.3 87 1.1 WNW 28 52 15 28 - - 5.2
25/03:00pm 11.5 6.0 9.2 86 1.2 NW 28 44 15 24 - - 3.6
25/02:48pm 11.9 6.3 10.1 89 0.9 NW 30 54 16 29 - - 3.6
25/02:36pm 11.9 4.9 9.8 87 1.1 NNW 37 61 20 33 - - 1.0
25/02:30pm 12.0 5.7 9.7 86 1.2 NNW 33 50 18 27 - - 0.6
25/02:00pm 12.1 5.7 9.3 83 1.4 NW 33 61 18 33 - - 0.2
25/01:30pm 12.2 5.8 9.2 82 1.5 NNW 33 59 18 32 - - 0.0
25/01:01pm 12.4 5.7 8.3 76 2.0 NNW 33 52 18 28 - - 0.0
25/01:00pm 12.5 5.5 8.4 76 2.0 NNW 35 52 19 28 - - 0.0
25/12:30pm 12.5 5.8 8.2 75 2.1 NNW 33 56 18 30 - - 0.0
25/12:14pm 12.4 6.4 8.5 77 1.9 NNW 30 50 16 27 - - 0.0
25/12:00pm 12.4 5.7 8.1 75 2.1 NNW 33 48 18 26 - - 0.0
25/11:53am 12.2 6.5 8.3 77 1.9 NNW 28 48 15 26 - - 0.0
25/11:30am 11.7 6.1 8.9 83 1.4 NNW 28 43 15 23 - - 0.0
25/11:04am 11.4 5.0 8.4 82 1.5 N 32 52 17 28 - - 0.0
25/11:00am 11.4 4.7 8.3 81 1.5 N 33 52 18 28 - - 0.0
25/10:30am 11.7 5.4 7.6 76 2.0 NNW 30 43 16 23 - - 0.0
25/10:01am 11.6 5.4 7.9 78 1.8 NNW 30 48 16 26 - - 0.0
25/10:00am 11.6 5.0 7.9 78 1.8 NNW 32 48 17 26 - - 0.0
25/09:30am 11.8 6.0 8.1 78 1.8 NNW 28 46 15 25 - - 0.0
25/09:29am 11.7 5.9 8.0 78 1.8 NNW 28 46 15 25 - - 0.0
25/09:00am 11.4 6.3 7.7 78 1.8 NW 24 35 13 19 - - 11.8
25/08:30am 11.8 6.7 7.5 75 2.1 NW 24 41 13 22 - - 11.8
25/08:00am 11.4 6.2 7.3 76 2.0 NW 24 37 13 20 - - 11.8
25/07:30am 11.3 6.8 6.8 74 2.1 NW 20 33 11 18 - - 11.8
25/07:00am 11.2 6.8 6.5 73 2.2 NW 19 32 10 17 - - 11.8
25/06:30am 11.1 6.6 6.8 75 2.0 NW 20 30 11 16 - - 11.8
25/06:00am 10.9 7.0 7.0 77 1.9 NW 17 26 9 14 - - 11.8
25/05:30am 10.9 6.6 6.8 76 1.9 WNW 19 26 10 14 - - 11.8
25/05:00am 10.1 6.5 6.6 79 1.6 NW 15 24 8 13 - - 11.8
25/04:30am 10.1 6.2 7.3 83 1.3 WNW 17 28 9 15 - - 11.6
25/04:00am 10.1 5.2 7.0 81 1.5 WNW 22 37 12 20 - - 11.6
25/03:30am 11.1 6.9 5.6 69 2.5 W 17 30 9 16 - - 11.6
25/03:00am 11.2 6.3 5.1 66 2.8 W 20 33 11 18 - - 11.6
25/02:30am 11.1 6.1 4.8 65 2.9 W 20 33 11 18 - - 11.6
25/02:00am 11.1 5.7 4.3 63 3.1 WSW 22 32 12 17 - - 11.6
25/01:30am 10.8 5.9 5.1 68 2.6 WSW 20 30 11 16 - - 11.6
25/01:00am 10.7 4.6 5.0 68 2.6 WSW 26 39 14 21 - - 11.6
25/12:30am 11.1 5.1 5.4 68 2.6 WSW 26 46 14 25 - - 11.6
25/12:29am 11.1 4.7 5.4 68 2.6 W 28 46 15 25 - - 11.6
25/12:00am 11.1 5.9 5.6 69 2.5 WSW 22 37 12 20 - - 11.6
 
Date/Time
CST
Temp
°C
App
Temp
°C
Dew
Point
°C
Rel
Hum
%
Delta-T
°C
Wind Press
QNH
hPa
Press
MSL
hPa
Rain since
9am
mm
Dir  Spd
km/h
Gust
km/h
Spd
kts
Gust
kts
24/11:30pm 10.9 5.2 4.8 66 2.8 WSW 24 39 13 21 - - 11.6
24/11:00pm 11.0 5.0 5.3 68 2.6 WSW 26 44 14 24 - - 11.6
24/10:30pm 10.8 5.7 5.8 71 2.3 WSW 22 37 12 20 - - 11.6
24/10:00pm 10.8 4.1 5.8 71 2.3 WSW 30 46 16 25 - - 11.6
24/09:49pm 11.0 4.4 6.0 71 2.3 WSW 30 52 16 28 - - 11.6
24/09:30pm 10.5 4.9 7.0 79 1.7 WSW 26 43 14 23 - - 11.6
24/09:00pm 10.1 3.7 6.8 80 1.6 WSW 30 61 16 33 - - 11.0
24/08:32pm 11.1 4.4 7.2 77 1.9 WSW 32 50 17 27 - - 10.8
24/08:30pm 11.0 4.2 6.9 76 2.0 WSW 32 44 17 24 - - 10.8
24/08:02pm 10.7 4.0 7.2 79 1.7 W 32 52 17 28 - - 10.8
24/08:00pm 10.5 4.1 6.8 78 1.7 W 30 48 16 26 - - 10.8
24/07:30pm 10.8 4.0 7.9 82 1.4 W 33 56 18 30 - - 9.6
24/07:00pm 9.9 1.5 7.5 85 1.1 W 41 72 22 39 - - 9.4
24/06:57pm 10.6 3.1 8.0 84 1.3 WNW 37 72 20 39 - - 8.6
24/06:30pm 10.4 3.7 8.0 85 1.2 WNW 33 54 18 29 - - 6.4
24/06:00pm 10.9 3.1 8.1 83 1.4 WNW 39 67 21 36 - - 5.8
24/05:30pm 11.4 2.9 6.9 74 2.1 WNW 41 65 22 35 - - 5.4
24/05:00pm 11.7 3.1 6.4 70 2.5 WNW 41 61 22 33 - - 5.4
24/04:30pm 11.4 3.6 6.5 72 2.3 NW 37 61 20 33 - - 5.4
24/04:00pm 11.3 3.8 6.4 72 2.3 NW 35 56 19 30 - - 5.4
24/03:31pm 10.8 3.7 5.6 70 2.4 WNW 32 52 17 28 - - 5.4
24/03:30pm 10.8 3.8 6.0 72 2.2 WNW 32 48 17 26 - - 5.4
24/03:09pm 11.3 5.2 6.6 73 2.2 NW 28 59 15 32 - - 4.0
24/03:00pm 11.6 5.0 5.9 68 2.7 WNW 30 46 16 25 - - 3.4
24/02:42pm 11.6 4.5 5.7 67 2.7 NW 32 54 17 29 - - 3.4
24/02:30pm 12.2 4.8 5.1 62 3.3 NW 33 48 18 26 - - 3.4
24/02:18pm 12.1 5.8 5.5 64 3.1 WNW 28 48 15 26 - - 3.4
24/02:00pm 11.9 5.6 5.8 66 2.9 WNW 28 44 15 24 - - 3.4
24/01:30pm 11.0 4.4 6.2 72 2.2 WNW 30 48 16 26 - - 3.4
24/01:17pm 10.6 4.3 5.6 71 2.3 WNW 28 50 15 27 - - 3.2
24/01:00pm 12.0 6.0 5.4 64 3.1 NW 26 41 14 22 - - 3.0
24/12:30pm 10.3 2.2 5.1 70 2.4 NW 37 61 20 33 - - 3.0
24/12:21pm 10.8 2.6 4.9 67 2.7 NW 37 61 20 33 - - 3.0
24/12:00pm 11.1 3.8 5.6 69 2.5 NW 33 50 18 27 - - 3.0
24/11:38am 10.3 3.3 5.9 74 2.0 NW 32 52 17 28 - - 3.0
24/11:30am 10.1 2.9 6.1 76 1.9 NW 33 50 18 27 - - 3.0
24/11:00am 9.2 2.8 5.0 75 1.9 NW 28 52 15 28 - - 3.0
24/10:45am 9.1 2.6 4.9 75 1.9 NW 28 50 15 27 - - 3.0
24/10:30am 8.5 3.3 5.6 82 1.3 NW 22 35 12 19 - - 3.0
24/10:00am 7.9 2.4 5.9 87 0.9 NW 24 41 13 22 - - 2.6
24/09:30am 8.0 -0.6 4.6 79 1.5 NW 39 65 21 35 - - 1.0
24/09:27am 9.6 1.8 6.7 82 1.4 NW 37 65 20 35 - - 0.8
24/09:00am 10.7 3.5 5.7 71 2.3 NNW 33 52 18 28 - - 2.4
24/08:30am 10.7 3.5 5.9 72 2.2 NNW 33 65 18 35 - - 2.2
24/08:23am 10.7 3.7 5.9 72 2.2 NNW 32 52 17 28 - - 2.2
24/08:00am 9.3 4.6 6.2 81 1.4 N 20 30 11 16 - - 2.2
24/07:30am 9.1 3.0 6.5 84 1.2 N 28 43 15 23 - - 2.2
24/07:00am 8.6 1.7 6.4 86 1.0 N 32 46 17 25 - - 2.2
24/06:30am 8.7 2.5 6.0 83 1.2 N 28 44 15 24 - - 2.2
24/06:00am 8.6 2.6 5.4 80 1.4 N 26 37 14 20 - - 1.8
24/05:30am 8.7 2.3 5.3 79 1.5 N 28 39 15 21 - - 1.6
24/05:00am 8.6 2.8 4.4 75 1.9 N 24 37 13 20 - - 1.6
24/04:30am 8.4 3.0 4.4 76 1.8 N 22 32 12 17 - - 1.6
24/04:00am 8.0 2.2 4.2 77 1.7 N 24 35 13 19 - - 1.6
24/03:30am 7.9 2.5 4.3 78 1.6 NNE 22 33 12 18 - - 1.6
24/03:00am 7.9 2.8 4.3 78 1.6 N 20 33 11 18 - - 1.6
24/02:30am 7.8 2.8 4.4 79 1.5 NNE 20 32 11 17 - - 1.6
24/02:00am 8.0 3.0 4.8 80 1.4 NNE 20 30 11 16 - - 1.6
24/01:30am 7.9 3.2 5.2 83 1.2 N 19 26 10 14 - - 1.6
24/01:00am 8.3 4.1 5.6 83 1.2 N 17 24 9 13 - - 1.6
24/12:30am 8.1 4.2 5.4 83 1.2 NNE 15 19 8 10 - - 1.6
24/12:00am 8.2 4.7 5.5 83 1.2 NNE 13 20 7 11 - - 1.6
 
Date/Time
CST
Temp
°C
App
Temp
°C
Dew
Point
°C
Rel
Hum
%
Delta-T
°C
Wind Press
QNH
hPa
Press
MSL
hPa
Rain since
9am
mm
Dir  Spd
km/h
Gust
km/h
Spd
kts
Gust
kts
23/11:30pm 8.4 4.6 5.9 84 1.1 N 15 24 8 13 - - 1.6
23/11:00pm 8.6 5.2 6.1 84 1.1 N 13 19 7 10 - - 1.6
23/10:30pm 8.5 6.2 5.8 83 1.2 WNW 7 11 4 6 - - 1.6
23/10:00pm 9.6 5.9 6.3 80 1.5 NNW 15 22 8 12 - - 0.8
23/09:30pm 9.3 5.5 6.0 80 1.5 N 15 24 8 13 - - 0.8
23/09:00pm 9.6 6.1 5.4 75 1.9 NNW 13 19 7 10 - - 0.8
23/08:30pm 8.8 6.4 5.2 78 1.6 NNW 7 11 4 6 - - 0.8
23/08:00pm 8.9 6.0 4.7 75 1.9 NNW 9 13 5 7 - - 0.8
23/07:30pm 9.8 6.2 4.8 71 2.2 NNW 13 20 7 11 - - 0.8
23/07:00pm 9.2 6.9 5.9 80 1.5 NNW 7 11 4 6 - - 0.8
23/06:30pm 8.9 7.3 6.2 83 1.2 NW 4 6 2 3 - - 0.8
23/06:00pm 8.8 8.0 6.3 84 1.2 CALM 0 4 0 2 - - 0.8
23/05:30pm 8.9 7.5 5.6 80 1.5 W 2 4 1 2 - - 0.8
23/05:00pm 8.8 5.6 5.0 77 1.7 WNW 11 24 6 13 - - 0.8
23/04:30pm 10.0 9.0 5.4 73 2.1 CALM 0 2 0 1 - - 0.0
23/04:00pm 10.0 7.7 5.6 74 2.0 SW 7 13 4 7 - - 0.0
23/03:30pm 11.1 8.2 4.6 64 2.9 WNW 9 15 5 8 - - 0.0
23/03:00pm 10.6 8.1 4.7 67 2.7 W 7 11 4 6 - - 0.0
23/02:30pm 11.0 6.9 4.5 64 2.9 WSW 15 24 8 13 - - 0.0
23/02:00pm 12.4 7.9 2.3 50 4.4 W 15 22 8 12 - - 0.0

Other Formats:

Comma delimited format used in spreadsheet applications
http://www.bom.gov.au/fwo/IDS60801/IDS60801.94808.axf

JavaScript Object Notation format (JSON) in row-major order
http://www.bom.gov.au/fwo/IDS60801/IDS60801.94808.json